sensor_id;sensor_type;location;lat;lon;timestamp;pressure;altitude;pressure_sealevel;temperature;humidity
58775;BME280;44545;47.480;19.024;2022-12-07T04:09:04;100041.56;;;2.51;100.00
58775;BME280;44545;47.480;19.024;2022-12-07T04:12:06;100053.41;;;2.49;100.00
58775;BME280;44545;47.480;19.024;2022-12-07T04:15:09;100048.88;;;2.57;100.00
58775;BME280;44545;47.480;19.024;2022-12-07T04:18:11;100050.37;;;2.65;100.00
58775;BME280;44545;47.480;19.024;2022-12-07T04:21:14;100047.28;;;2.69;100.00
58775;BME280;44545;47.480;19.024;2022-12-07T04:24:16;100057.16;;;2.75;100.00
58775;BME280;44545;47.480;19.024;2022-12-07T04:27:19;100051.81;;;2.83;100.00
58775;BME280;44545;47.480;19.024;2022-12-07T04:30:21;100052.19;;;2.88;100.00
58775;BME280;44545;47.480;19.024;2022-12-07T04:33:23;100063.09;;;2.96;100.00
58775;BME280;44545;47.480;19.024;2022-12-07T04:36:26;100051.75;;;3.04;100.00
58775;BME280;44545;47.480;19.024;2022-12-07T04:39:32;100054.34;;;3.16;100.00
58775;BME280;44545;47.480;19.024;2022-12-07T04:42:34;100056.03;;;3.15;100.00
58775;BME280;44545;47.480;19.024;2022-12-07T04:45:36;100054.13;;;3.13;100.00
58775;BME280;44545;47.480;19.024;2022-12-07T04:48:39;100053.34;;;3.14;100.00
58775;BME280;44545;47.480;19.024;2022-12-07T04:51:41;100051.13;;;3.18;100.00
58775;BME280;44545;47.480;19.024;2022-12-07T04:54:44;100054.28;;;3.26;100.00
58775;BME280;44545;47.480;19.024;2022-12-07T04:57:46;100055.44;;;3.30;100.00
58775;BME280;44545;47.480;19.024;2022-12-07T05:00:49;100065.78;;;3.41;100.00
58775;BME280;44545;47.480;19.024;2022-12-07T05:03:51;100063.56;;;3.46;100.00
58775;BME280;44545;47.480;19.024;2022-12-07T05:06:53;100062.91;;;3.48;100.00
58775;BME280;44545;47.480;19.024;2022-12-07T05:09:55;100062.47;;;3.54;100.00
58775;BME280;44545;47.480;19.024;2022-12-07T05:12:58;100057.09;;;3.51;100.00
58775;BME280;44545;47.480;19.024;2022-12-07T05:16:00;100054.41;;;3.28;100.00
58775;BME280;44545;47.480;19.024;2022-12-07T05:19:03;100058.91;;;3.08;100.00
58775;BME280;44545;47.480;19.024;2022-12-07T05:22:05;100064.56;;;3.14;100.00
58775;BME280;44545;47.480;19.024;2022-12-07T05:25:08;100053.53;;;3.05;100.00
58775;BME280;44545;47.480;19.024;2022-12-07T05:28:10;100056.16;;;2.95;100.00
58775;BME280;44545;47.480;19.024;2022-12-07T05:31:12;100053.34;;;2.92;100.00
58775;BME280;44545;47.480;19.024;2022-12-07T05:34:15;100046.56;;;2.82;100.00
58775;BME280;44545;47.480;19.024;2022-12-07T05:37:17;100039.78;;;2.72;100.00
58775;BME280;44545;47.480;19.024;2022-12-07T05:40:19;100044.78;;;2.71;100.00
58775;BME280;44545;47.480;19.024;2022-12-07T05:43:21;100034.91;;;2.65;100.00
58775;BME280;44545;47.480;19.024;2022-12-07T05:46:24;100044.75;;;2.59;100.00
58775;BME280;44545;47.480;19.024;2022-12-07T05:49:26;100047.59;;;2.52;100.00
58775;BME280;44545;47.480;19.024;2022-12-07T05:52:28;100054.81;;;2.56;100.00
58775;BME280;44545;47.480;19.024;2022-12-07T05:55:31;100056.63;;;2.47;100.00
58775;BME280;44545;47.480;19.024;2022-12-07T05:58:33;100049.25;;;2.62;100.00
58775;BME280;44545;47.480;19.024;2022-12-07T06:02:02;100044.88;;;2.50;100.00
58775;BME280;44545;47.480;19.024;2022-12-07T06:05:06;100056.25;;;2.42;100.00
58775;BME280;44545;47.480;19.024;2022-12-07T06:08:08;100049.31;;;2.41;100.00
58775;BME280;44545;47.480;19.024;2022-12-07T06:11:11;100053.56;;;2.41;100.00
58775;BME280;44545;47.480;19.024;2022-12-07T06:14:31;100050.72;;;2.37;100.00
58775;BME280;44545;47.480;19.024;2022-12-07T06:17:34;100047.25;;;2.37;100.00
58775;BME280;44545;47.480;19.024;2022-12-07T06:20:36;100053.28;;;2.37;100.00
58775;BME280;44545;47.480;19.024;2022-12-07T06:23:38;100052.47;;;2.59;100.00
58775;BME280;44545;47.480;19.024;2022-12-07T06:26:40;100055.38;;;2.74;100.00
58775;BME280;44545;47.480;19.024;2022-12-07T06:29:43;100046.66;;;2.83;100.00
58775;BME280;44545;47.480;19.024;2022-12-07T06:32:45;100058.28;;;2.78;100.00
58775;BME280;44545;47.480;19.024;2022-12-07T06:35:47;100053.13;;;2.89;100.00
58775;BME280;44545;47.480;19.024;2022-12-07T06:38:49;100051.44;;;2.89;100.00
58775;BME280;44545;47.480;19.024;2022-12-07T06:41:52;100061.50;;;2.86;100.00
58775;BME280;44545;47.480;19.024;2022-12-07T06:44:54;100058.94;;;2.76;100.00
58775;BME280;44545;47.480;19.024;2022-12-07T06:47:57;100067.31;;;2.73;100.00
58775;BME280;44545;47.480;19.024;2022-12-07T06:50:59;100063.03;;;2.84;100.00
58775;BME280;44545;47.480;19.024;2022-12-07T06:54:03;100056.72;;;2.80;100.00
58775;BME280;44545;47.480;19.024;2022-12-07T06:57:05;100067.06;;;2.70;100.00
58775;BME280;44545;47.480;19.024;2022-12-07T07:00:08;100063.75;;;2.71;100.00
58775;BME280;44545;47.480;19.024;2022-12-07T07:03:11;100065.91;;;2.77;100.00
58775;BME280;44545;47.480;19.024;2022-12-07T07:06:14;100075.78;;;2.82;100.00
58775;BME280;44545;47.480;19.024;2022-12-07T07:09:16;100067.78;;;2.90;100.00
58775;BME280;44545;47.480;19.024;2022-12-07T07:12:19;100074.25;;;2.85;100.00
58775;BME280;44545;47.480;19.024;2022-12-07T07:15:21;100076.28;;;2.89;100.00
58775;BME280;44545;47.480;19.024;2022-12-07T07:18:24;100072.78;;;2.88;100.00
58775;BME280;44545;47.480;19.024;2022-12-07T07:21:26;100074.37;;;2.86;100.00
58775;BME280;44545;47.480;19.024;2022-12-07T07:24:29;100078.06;;;2.90;100.00
58775;BME280;44545;47.480;19.024;2022-12-07T07:27:31;100070.53;;;3.03;100.00
58775;BME280;44545;47.480;19.024;2022-12-07T07:30:33;100069.88;;;3.06;100.00
58775;BME280;44545;47.480;19.024;2022-12-07T07:33:36;100078.09;;;3.12;100.00
58775;BME280;44545;47.480;19.024;2022-12-07T07:36:38;100081.06;;;3.06;100.00
58775;BME280;44545;47.480;19.024;2022-12-07T07:39:40;100075.25;;;3.09;100.00
58775;BME280;44545;47.480;19.024;2022-12-07T07:42:43;100077.84;;;3.09;100.00
58775;BME280;44545;47.480;19.024;2022-12-07T07:45:45;100070.25;;;3.10;100.00
58775;BME280;44545;47.480;19.024;2022-12-07T07:48:47;100066.47;;;3.17;100.00
58775;BME280;44545;47.480;19.024;2022-12-07T07:51:50;100071.00;;;3.31;100.00
58775;BME280;44545;47.480;19.024;2022-12-07T07:54:52;100079.09;;;3.36;100.00
58775;BME280;44545;47.480;19.024;2022-12-07T07:57:54;100070.19;;;3.54;100.00
58775;BME280;44545;47.480;19.024;2022-12-07T08:01:03;100078.50;;;3.50;100.00
58775;BME280;44545;47.480;19.024;2022-12-07T08:04:05;100072.38;;;3.72;100.00
58775;BME280;44545;47.480;19.024;2022-12-07T08:07:07;100071.44;;;3.93;100.00
58775;BME280;44545;47.480;19.024;2022-12-07T08:10:11;100069.41;;;3.89;100.00
58775;BME280;44545;47.480;19.024;2022-12-07T08:13:16;100072.59;;;4.08;100.00
58775;BME280;44545;47.480;19.024;2022-12-07T08:16:19;100074.06;;;4.40;100.00
58775;BME280;44545;47.480;19.024;2022-12-07T08:19:21;100080.59;;;4.59;100.00
58775;BME280;44545;47.480;19.024;2022-12-07T08:22:23;100079.00;;;4.84;100.00
58775;BME280;44545;47.480;19.024;2022-12-07T08:25:27;100075.69;;;4.98;100.00
58775;BME280;44545;47.480;19.024;2022-12-07T08:28:29;100081.03;;;5.25;100.00
58775;BME280;44545;47.480;19.024;2022-12-07T08:31:31;100074.31;;;5.77;100.00
58775;BME280;44545;47.480;19.024;2022-12-07T08:34:34;100085.44;;;5.76;100.00
58775;BME280;44545;47.480;19.024;2022-12-07T08:37:36;100087.78;;;5.60;100.00
58775;BME280;44545;47.480;19.024;2022-12-07T08:40:39;100093.47;;;5.42;100.00
58775;BME280;44545;47.480;19.024;2022-12-07T08:43:41;100087.31;;;5.79;100.00
58775;BME280;44545;47.480;19.024;2022-12-07T08:46:50;100088.19;;;5.66;100.00
58775;BME280;44545;47.480;19.024;2022-12-07T08:49:54;100094.00;;;5.75;100.00
58775;BME280;44545;47.480;19.024;2022-12-07T08:52:58;100088.22;;;6.04;100.00
58775;BME280;44545;47.480;19.024;2022-12-07T08:56:01;100082.59;;;6.63;100.00
58775;BME280;44545;47.480;19.024;2022-12-07T08:59:04;100085.22;;;6.77;98.96
58775;BME280;44545;47.480;19.024;2022-12-07T09:02:07;100092.19;;;6.64;100.00
58775;BME280;44545;47.480;19.024;2022-12-07T09:05:10;100084.59;;;6.67;99.86
58775;BME280;44545;47.480;19.024;2022-12-07T09:08:18;100077.03;;;6.84;98.29
58775;BME280;44545;47.480;19.024;2022-12-07T09:11:20;100092.63;;;6.99;99.48
58775;BME280;44545;47.480;19.024;2022-12-07T09:14:29;100083.94;;;7.25;95.43
58775;BME280;44545;47.480;19.024;2022-12-07T09:17:33;100076.53;;;7.59;92.37
58775;BME280;44545;47.480;19.024;2022-12-07T09:20:35;100065.84;;;7.54;91.58
58775;BME280;44545;47.480;19.024;2022-12-07T09:23:37;100064.25;;;8.14;88.24
58775;BME280;44545;47.480;19.024;2022-12-07T09:26:39;100054.91;;;8.62;86.30
58775;BME280;44545;47.480;19.024;2022-12-07T09:29:42;100060.78;;;8.58;87.09
58775;BME280;44545;47.480;19.024;2022-12-07T09:32:44;100059.88;;;8.13;84.15
58775;BME280;44545;47.480;19.024;2022-12-07T09:35:48;100059.69;;;7.95;87.46
58775;BME280;44545;47.480;19.024;2022-12-07T09:38:51;100070.47;;;7.73;86.63
58775;BME280;44545;47.480;19.024;2022-12-07T09:41:54;100054.41;;;8.09;86.86
58775;BME280;44545;47.480;19.024;2022-12-07T09:44:56;100044.94;;;8.70;85.38
58775;BME280;44545;47.480;19.024;2022-12-07T09:48:00;100045.84;;;9.84;82.65
58775;BME280;44545;47.480;19.024;2022-12-07T09:51:14;100047.13;;;9.92;74.81
58775;BME280;44545;47.480;19.024;2022-12-07T09:54:24;100043.78;;;9.60;77.26
58775;BME280;44545;47.480;19.024;2022-12-07T09:57:31;100037.59;;;9.58;75.40
58775;BME280;44545;47.480;19.024;2022-12-07T10:00:36;100038.50;;;9.42;72.72
58775;BME280;44545;47.480;19.024;2022-12-07T10:03:42;100039.03;;;9.37;73.07
58775;BME280;44545;47.480;19.024;2022-12-07T10:06:47;100041.66;;;9.37;73.47
58775;BME280;44545;47.480;19.024;2022-12-07T10:09:50;100041.00;;;9.24;73.43
58775;BME280;44545;47.480;19.024;2022-12-07T10:15:57;100024.72;;;9.61;71.62
58775;BME280;44545;47.480;19.024;2022-12-07T10:19:23;100025.94;;;10.02;69.80
58775;BME280;44545;47.480;19.024;2022-12-07T10:22:26;100028.38;;;9.81;70.37
58775;BME280;44545;47.480;19.024;2022-12-07T10:25:36;100031.06;;;9.66;71.00
58775;BME280;44545;47.480;19.024;2022-12-07T10:28:40;100034.66;;;9.19;72.90
58775;BME280;44545;47.480;19.024;2022-12-07T10:31:45;100022.22;;;9.46;72.43
58775;BME280;44545;47.480;19.024;2022-12-07T10:34:49;100026.34;;;9.59;69.20
58775;BME280;44545;47.480;19.024;2022-12-07T10:38:16;100025.78;;;8.68;74.63
58775;BME280;44545;47.480;19.024;2022-12-07T10:41:19;100023.16;;;8.68;73.51
58775;BME280;44545;47.480;19.024;2022-12-07T10:44:27;100022.75;;;8.60;74.59
58775;BME280;44545;47.480;19.024;2022-12-07T10:47:34;100019.53;;;8.64;72.67
58775;BME280;44545;47.480;19.024;2022-12-07T11:00:38;100023.50;;;8.28;72.96
58775;BME280;44545;47.480;19.024;2022-12-07T11:07:34;100023.31;;;7.66;77.41
58775;BME280;44545;47.480;19.024;2022-12-07T11:10:52;100009.34;;;7.78;75.11
58775;BME280;44545;47.480;19.024;2022-12-07T11:14:13;100013.16;;;8.59;71.64
58775;BME280;44545;47.480;19.024;2022-12-07T11:27:45;100004.84;;;8.35;72.94
58775;BME280;44545;47.480;19.024;2022-12-07T11:34:10;99998.91;;;8.38;73.19
58775;BME280;44545;47.480;19.024;2022-12-07T11:37:21;100003.34;;;8.54;74.44
58775;BME280;44545;47.480;19.024;2022-12-07T11:40:36;100002.19;;;8.19;74.05
58775;BME280;44545;47.480;19.024;2022-12-07T11:43:56;99998.72;;;8.03;74.55
58775;BME280;44545;47.480;19.024;2022-12-07T11:47:09;99999.59;;;8.04;73.23
58775;BME280;44545;47.480;19.024;2022-12-07T11:50:33;99999.50;;;8.02;73.39
58775;BME280;44545;47.480;19.024;2022-12-07T11:53:45;100010.41;;;8.87;72.94
58775;BME280;44545;47.480;19.024;2022-12-07T11:56:50;99997.34;;;11.31;64.27
58775;BME280;44545;47.480;19.024;2022-12-07T11:59:59;99999.75;;;11.65;60.77
58775;BME280;44545;47.480;19.024;2022-12-07T12:03:12;100000.25;;;10.26;63.52
58775;BME280;44545;47.480;19.024;2022-12-07T12:06:16;99982.50;;;13.42;56.43
58775;BME280;44545;47.480;19.024;2022-12-07T12:09:34;99974.78;;;14.77;49.67
58775;BME280;44545;47.480;19.024;2022-12-07T12:12:48;99971.78;;;13.36;51.26
58775;BME280;44545;47.480;19.024;2022-12-07T12:20:04;99973.38;;;9.75;63.49
58775;BME280;44545;47.480;19.024;2022-12-07T12:26:23;99965.41;;;8.57;68.57
58775;BME280;44545;47.480;19.024;2022-12-07T12:29:34;99962.47;;;8.36;67.60
58775;BME280;44545;47.480;19.024;2022-12-07T12:32:40;99951.88;;;7.87;68.32
58775;BME280;44545;47.480;19.024;2022-12-07T12:35:44;99962.44;;;7.60;70.20
58775;BME280;44545;47.480;19.024;2022-12-07T12:38:48;99952.66;;;7.27;70.83
58775;BME280;44545;47.480;19.024;2022-12-07T12:41:53;99942.56;;;7.16;72.25
58775;BME280;44545;47.480;19.024;2022-12-07T12:45:05;99952.06;;;6.75;73.52
58775;BME280;44545;47.480;19.024;2022-12-07T12:48:30;99956.75;;;6.67;75.03
58775;BME280;44545;47.480;19.024;2022-12-07T12:51:40;99943.94;;;6.83;74.59
58775;BME280;44545;47.480;19.024;2022-12-07T12:55:11;99946.81;;;6.88;75.07
58775;BME280;44545;47.480;19.024;2022-12-07T13:04:50;99953.19;;;7.36;73.20
58775;BME280;44545;47.480;19.024;2022-12-07T13:07:56;99951.50;;;7.36;74.00
58775;BME280;44545;47.480;19.024;2022-12-07T13:11:15;99959.28;;;7.36;74.45
58775;BME280;44545;47.480;19.024;2022-12-07T13:23:59;99967.84;;;6.92;73.10
58775;BME280;44545;47.480;19.024;2022-12-07T13:27:02;99961.78;;;6.92;75.01
58775;BME280;44545;47.480;19.024;2022-12-07T13:30:17;99973.16;;;6.81;73.82
58775;BME280;44545;47.480;19.024;2022-12-07T13:33:19;99973.34;;;6.42;73.84
58775;BME280;44545;47.480;19.024;2022-12-07T13:36:27;99972.03;;;6.22;76.31
58775;BME280;44545;47.480;19.024;2022-12-07T13:39:35;99966.56;;;6.04;76.06
58775;BME280;44545;47.480;19.024;2022-12-07T13:42:46;99975.84;;;6.14;77.00
58775;BME280;44545;47.480;19.024;2022-12-07T13:45:58;99978.81;;;5.94;77.30
58775;BME280;44545;47.480;19.024;2022-12-07T13:49:17;99982.44;;;5.84;79.45
58775;BME280;44545;47.480;19.024;2022-12-07T13:52:29;99987.81;;;5.74;81.12
58775;BME280;44545;47.480;19.024;2022-12-07T13:55:32;99989.75;;;5.64;82.28
58775;BME280;44545;47.480;19.024;2022-12-07T13:58:34;99996.25;;;5.71;81.77
58775;BME280;44545;47.480;19.024;2022-12-07T14:01:37;99988.69;;;5.74;82.03
58775;BME280;44545;47.480;19.024;2022-12-07T14:04:39;99999.47;;;5.80;81.07
58775;BME280;44545;47.480;19.024;2022-12-07T14:07:56;99990.00;;;5.81;79.81
58775;BME280;44545;47.480;19.024;2022-12-07T14:11:00;99988.13;;;5.78;80.92
58775;BME280;44545;47.480;19.024;2022-12-07T14:14:02;99985.66;;;5.93;80.56
58775;BME280;44545;47.480;19.024;2022-12-07T14:17:15;99984.34;;;5.86;80.24
58775;BME280;44545;47.480;19.024;2022-12-07T14:20:35;99984.50;;;5.63;81.38
58775;BME280;44545;47.480;19.024;2022-12-07T14:23:39;99980.13;;;5.62;83.12
58775;BME280;44545;47.480;19.024;2022-12-07T14:26:42;99985.91;;;5.58;84.48
58775;BME280;44545;47.480;19.024;2022-12-07T14:29:44;99984.88;;;5.56;85.20
58775;BME280;44545;47.480;19.024;2022-12-07T14:32:53;99986.81;;;5.33;85.15
58775;BME280;44545;47.480;19.024;2022-12-07T14:35:56;99992.28;;;5.13;86.09
58775;BME280;44545;47.480;19.024;2022-12-07T14:39:00;99996.97;;;4.93;87.32
58775;BME280;44545;47.480;19.024;2022-12-07T14:42:02;99995.50;;;4.97;89.72
58775;BME280;44545;47.480;19.024;2022-12-07T14:45:06;100013.41;;;4.82;90.96
58775;BME280;44545;47.480;19.024;2022-12-07T14:48:13;100008.72;;;4.76;90.98
58775;BME280;44545;47.480;19.024;2022-12-07T14:51:39;100015.47;;;4.63;92.22
58775;BME280;44545;47.480;19.024;2022-12-07T14:55:01;100012.44;;;4.45;94.36
58775;BME280;44545;47.480;19.024;2022-12-07T14:58:12;100010.09;;;4.12;96.28
58775;BME280;44545;47.480;19.024;2022-12-07T15:01:15;100018.31;;;3.95;98.51
58775;BME280;44545;47.480;19.024;2022-12-07T15:04:17;100010.09;;;3.89;98.26
58775;BME280;44545;47.480;19.024;2022-12-07T15:07:21;100015.25;;;3.89;99.98
58775;BME280;44545;47.480;19.024;2022-12-07T15:10:26;100026.19;;;3.75;99.21
58775;BME280;44545;47.480;19.024;2022-12-07T15:13:33;100017.00;;;3.66;99.05
58775;BME280;44545;47.480;19.024;2022-12-07T15:16:54;100027.97;;;3.52;100.00
58775;BME280;44545;47.480;19.024;2022-12-07T15:20:16;100029.28;;;3.47;100.00
58775;BME280;44545;47.480;19.024;2022-12-07T15:23:19;100037.34;;;3.40;100.00
58775;BME280;44545;47.480;19.024;2022-12-07T15:26:21;100036.91;;;3.23;100.00
58775;BME280;44545;47.480;19.024;2022-12-07T15:29:24;100034.53;;;3.15;100.00
58775;BME280;44545;47.480;19.024;2022-12-07T15:32:26;100043.00;;;3.02;100.00
58775;BME280;44545;47.480;19.024;2022-12-07T15:35:28;100039.44;;;2.90;100.00
58775;BME280;44545;47.480;19.024;2022-12-07T15:38:31;100039.88;;;2.84;100.00
58775;BME280;44545;47.480;19.024;2022-12-07T15:41:53;100039.00;;;2.73;100.00
58775;BME280;44545;47.480;19.024;2022-12-07T15:44:55;100048.59;;;2.64;100.00
58775;BME280;44545;47.480;19.024;2022-12-07T15:48:07;100056.72;;;2.58;100.00
58775;BME280;44545;47.480;19.024;2022-12-07T15:51:29;100061.72;;;2.57;100.00
58775;BME280;44545;47.480;19.024;2022-12-07T15:54:32;100059.47;;;2.39;100.00
58775;BME280;44545;47.480;19.024;2022-12-07T15:57:36;100062.03;;;2.39;100.00
58775;BME280;44545;47.480;19.024;2022-12-07T16:00:38;100067.44;;;2.43;100.00
58775;BME280;44545;47.480;19.024;2022-12-07T16:03:42;100051.63;;;2.38;100.00
58775;BME280;44545;47.480;19.024;2022-12-07T16:06:44;100062.56;;;2.46;100.00
58775;BME280;44545;47.480;19.024;2022-12-07T16:09:47;100058.16;;;2.45;100.00
58775;BME280;44545;47.480;19.024;2022-12-07T16:12:49;100055.97;;;2.49;100.00
58775;BME280;44545;47.480;19.024;2022-12-07T16:15:51;100058.44;;;2.37;100.00
58775;BME280;44545;47.480;19.024;2022-12-07T16:18:53;100056.47;;;2.45;100.00
58775;BME280;44545;47.480;19.024;2022-12-07T16:21:56;100055.97;;;2.49;100.00
